sensor_id;sensor_type;location;lat;lon;timestamp;pressure;altitude;pressure_sealevel;temperature
9985;BMP180;16737;50.932;6.780;2022-09-04T00:01:22;100166.00;;;22.80
9985;BMP180;16737;50.932;6.780;2022-09-04T00:03:57;100172.00;;;22.80
9985;BMP180;16737;50.932;6.780;2022-09-04T00:06:31;100173.00;;;22.80
9985;BMP180;16737;50.932;6.780;2022-09-04T00:09:08;100172.00;;;22.80
9985;BMP180;16737;50.932;6.780;2022-09-04T00:11:45;100180.00;;;22.80
9985;BMP180;16737;50.932;6.780;2022-09-04T00:14:19;100187.00;;;22.70
9985;BMP180;16737;50.932;6.780;2022-09-04T00:16:52;100177.00;;;22.70
9985;BMP180;16737;50.932;6.780;2022-09-04T00:19:26;100183.00;;;22.70
9985;BMP180;16737;50.932;6.780;2022-09-04T00:21:57;100186.00;;;22.70
9985;BMP180;16737;50.932;6.780;2022-09-04T00:24:29;100192.00;;;22.70
9985;BMP180;16737;50.932;6.780;2022-09-04T00:27:02;100188.00;;;22.60
9985;BMP180;16737;50.932;6.780;2022-09-04T00:29:39;100193.00;;;22.60
9985;BMP180;16737;50.932;6.780;2022-09-04T00:32:18;100192.00;;;22.60
9985;BMP180;16737;50.932;6.780;2022-09-04T00:35:03;100195.00;;;22.50
9985;BMP180;16737;50.932;6.780;2022-09-04T00:37:35;100198.00;;;22.50
9985;BMP180;16737;50.932;6.780;2022-09-04T00:40:07;100194.00;;;22.50
9985;BMP180;16737;50.932;6.780;2022-09-04T00:45:46;100198.00;;;22.30
9985;BMP180;16737;50.932;6.780;2022-09-04T00:48:33;100189.00;;;22.40
9985;BMP180;16737;50.932;6.780;2022-09-04T00:51:15;100197.00;;;22.40
9985;BMP180;16737;50.932;6.780;2022-09-04T00:54:03;100192.00;;;22.30
9985;BMP180;16737;50.932;6.780;2022-09-04T01:00:03;100200.00;;;22.30
9985;BMP180;16737;50.932;6.780;2022-09-04T01:02:42;100202.00;;;22.30
9985;BMP180;16737;50.932;6.780;2022-09-04T01:05:32;100201.00;;;22.30
9985;BMP180;16737;50.932;6.780;2022-09-04T01:08:09;100200.00;;;22.30
9985;BMP180;16737;50.932;6.780;2022-09-04T01:10:48;100200.00;;;22.30
9985;BMP180;16737;50.932;6.780;2022-09-04T01:13:22;100201.00;;;22.30
9985;BMP180;16737;50.932;6.780;2022-09-04T01:15:56;100208.00;;;22.30
9985;BMP180;16737;50.932;6.780;2022-09-04T01:18:29;100212.00;;;22.30
9985;BMP180;16737;50.932;6.780;2022-09-04T01:21:16;100211.00;;;22.30
9985;BMP180;16737;50.932;6.780;2022-09-04T01:24:02;100214.00;;;22.30
9985;BMP180;16737;50.932;6.780;2022-09-04T01:26:42;100208.00;;;22.40
9985;BMP180;16737;50.932;6.780;2022-09-04T01:29:21;100216.00;;;22.40
9985;BMP180;16737;50.932;6.780;2022-09-04T01:32:00;100224.00;;;22.40
9985;BMP180;16737;50.932;6.780;2022-09-04T01:34:40;100227.00;;;22.40
9985;BMP180;16737;50.932;6.780;2022-09-04T01:37:29;100223.00;;;22.40
9985;BMP180;16737;50.932;6.780;2022-09-04T01:40:10;100231.00;;;22.40
9985;BMP180;16737;50.932;6.780;2022-09-04T01:42:48;100231.00;;;22.40
9985;BMP180;16737;50.932;6.780;2022-09-04T01:45:23;100224.00;;;22.40
9985;BMP180;16737;50.932;6.780;2022-09-04T01:47:58;100219.00;;;22.40
9985;BMP180;16737;50.932;6.780;2022-09-04T01:50:29;100221.00;;;22.30
9985;BMP180;16737;50.932;6.780;2022-09-04T01:53:04;100230.00;;;22.30
9985;BMP180;16737;50.932;6.780;2022-09-04T01:55:40;100235.00;;;22.30
9985;BMP180;16737;50.932;6.780;2022-09-04T01:58:18;100241.00;;;22.30
9985;BMP180;16737;50.932;6.780;2022-09-04T02:00:56;100235.00;;;22.30
9985;BMP180;16737;50.932;6.780;2022-09-04T02:03:29;100235.00;;;22.20
9985;BMP180;16737;50.932;6.780;2022-09-04T02:06:04;100240.00;;;22.20
9985;BMP180;16737;50.932;6.780;2022-09-04T02:08:54;100241.00;;;22.20
9985;BMP180;16737;50.932;6.780;2022-09-04T02:11:28;100241.00;;;22.20
9985;BMP180;16737;50.932;6.780;2022-09-04T02:14:14;100245.00;;;22.10
9985;BMP180;16737;50.932;6.780;2022-09-04T02:16:50;100248.00;;;22.10
9985;BMP180;16737;50.932;6.780;2022-09-04T02:19:35;100246.00;;;22.10
9985;BMP180;16737;50.932;6.780;2022-09-04T02:22:09;100248.00;;;22.10
9985;BMP180;16737;50.932;6.780;2022-09-04T02:24:49;100247.00;;;22.00
9985;BMP180;16737;50.932;6.780;2022-09-04T02:27:23;100257.00;;;22.10
9985;BMP180;16737;50.932;6.780;2022-09-04T02:29:58;100248.00;;;22.00
9985;BMP180;16737;50.932;6.780;2022-09-04T02:32:33;100248.00;;;22.00
9985;BMP180;16737;50.932;6.780;2022-09-04T02:35:08;100254.00;;;22.00
9985;BMP180;16737;50.932;6.780;2022-09-04T02:37:49;100247.00;;;21.90
9985;BMP180;16737;50.932;6.780;2022-09-04T02:40:25;100253.00;;;21.90
9985;BMP180;16737;50.932;6.780;2022-09-04T02:43:05;100253.00;;;21.80
9985;BMP180;16737;50.932;6.780;2022-09-04T02:45:44;100256.00;;;21.80
9985;BMP180;16737;50.932;6.780;2022-09-04T02:48:17;100254.00;;;21.80
9985;BMP180;16737;50.932;6.780;2022-09-04T02:51:04;100254.00;;;21.80
9985;BMP180;16737;50.932;6.780;2022-09-04T02:53:42;100256.00;;;21.80
9985;BMP180;16737;50.932;6.780;2022-09-04T02:56:24;100255.00;;;21.70
9985;BMP180;16737;50.932;6.780;2022-09-04T02:59:14;100263.00;;;21.70
9985;BMP180;16737;50.932;6.780;2022-09-04T03:01:49;100261.00;;;21.70
9985;BMP180;16737;50.932;6.780;2022-09-04T03:04:22;100264.00;;;21.70
9985;BMP180;16737;50.932;6.780;2022-09-04T03:06:53;100263.00;;;21.70
9985;BMP180;16737;50.932;6.780;2022-09-04T03:09:28;100260.00;;;21.60
9985;BMP180;16737;50.932;6.780;2022-09-04T03:12:02;100257.00;;;21.60
9985;BMP180;16737;50.932;6.780;2022-09-04T03:14:35;100254.00;;;21.60
9985;BMP180;16737;50.932;6.780;2022-09-04T03:17:12;100261.00;;;21.50
9985;BMP180;16737;50.932;6.780;2022-09-04T03:19:48;100266.00;;;21.50
9985;BMP180;16737;50.932;6.780;2022-09-04T03:22:23;100270.00;;;21.50
9985;BMP180;16737;50.932;6.780;2022-09-04T03:25:09;100265.00;;;21.40
9985;BMP180;16737;50.932;6.780;2022-09-04T03:27:38;100260.00;;;21.40
9985;BMP180;16737;50.932;6.780;2022-09-04T03:30:07;100273.00;;;21.40
9985;BMP180;16737;50.932;6.780;2022-09-04T03:32:42;100267.00;;;21.40
9985;BMP180;16737;50.932;6.780;2022-09-04T03:35:19;100270.00;;;21.40
9985;BMP180;16737;50.932;6.780;2022-09-04T03:38:07;100281.00;;;21.40
9985;BMP180;16737;50.932;6.780;2022-09-04T03:40:44;100274.00;;;21.30
9985;BMP180;16737;50.932;6.780;2022-09-04T03:43:32;100276.00;;;21.30
9985;BMP180;16737;50.932;6.780;2022-09-04T03:46:16;100275.00;;;21.30
9985;BMP180;16737;50.932;6.780;2022-09-04T03:48:58;100279.00;;;21.30
9985;BMP180;16737;50.932;6.780;2022-09-04T03:51:35;100284.00;;;21.20
9985;BMP180;16737;50.932;6.780;2022-09-04T03:54:14;100278.00;;;21.20
9985;BMP180;16737;50.932;6.780;2022-09-04T03:57:05;100287.00;;;21.20
9985;BMP180;16737;50.932;6.780;2022-09-04T03:59:51;100279.00;;;21.20
9985;BMP180;16737;50.932;6.780;2022-09-04T04:02:28;100285.00;;;21.20
9985;BMP180;16737;50.932;6.780;2022-09-04T04:05:25;100296.00;;;21.10
9985;BMP180;16737;50.932;6.780;2022-09-04T04:08:21;100290.00;;;21.10
9985;BMP180;16737;50.932;6.780;2022-09-04T04:10:59;100288.00;;;21.10
9985;BMP180;16737;50.932;6.780;2022-09-04T04:13:48;100282.00;;;21.10
9985;BMP180;16737;50.932;6.780;2022-09-04T04:16:32;100279.00;;;21.10
9985;BMP180;16737;50.932;6.780;2022-09-04T04:19:35;100290.00;;;21.00
9985;BMP180;16737;50.932;6.780;2022-09-04T04:22:23;100298.00;;;21.00
9985;BMP180;16737;50.932;6.780;2022-09-04T04:25:11;100302.00;;;21.00
9985;BMP180;16737;50.932;6.780;2022-09-04T04:27:52;100305.00;;;21.00
9985;BMP180;16737;50.932;6.780;2022-09-04T04:30:23;100306.00;;;21.00
9985;BMP180;16737;50.932;6.780;2022-09-04T04:33:21;100303.00;;;20.90
9985;BMP180;16737;50.932;6.780;2022-09-04T04:36:00;100305.00;;;20.90
9985;BMP180;16737;50.932;6.780;2022-09-04T04:38:41;100311.00;;;20.90
9985;BMP180;16737;50.932;6.780;2022-09-04T04:41:25;100313.00;;;20.90
9985;BMP180;16737;50.932;6.780;2022-09-04T04:44:07;100320.00;;;20.90
9985;BMP180;16737;50.932;6.780;2022-09-04T04:46:52;100316.00;;;20.80
9985;BMP180;16737;50.932;6.780;2022-09-04T04:49:44;100324.00;;;20.80
9985;BMP180;16737;50.932;6.780;2022-09-04T04:52:25;100321.00;;;20.80
9985;BMP180;16737;50.932;6.780;2022-09-04T04:55:03;100330.00;;;20.80
9985;BMP180;16737;50.932;6.780;2022-09-04T04:57:43;100335.00;;;20.80
9985;BMP180;16737;50.932;6.780;2022-09-04T05:00:15;100325.00;;;20.80
9985;BMP180;16737;50.932;6.780;2022-09-04T05:02:54;100338.00;;;20.80
9985;BMP180;16737;50.932;6.780;2022-09-04T05:05:51;100340.00;;;20.80
9985;BMP180;16737;50.932;6.780;2022-09-04T05:08:31;100349.00;;;20.80
9985;BMP180;16737;50.932;6.780;2022-09-04T05:11:06;100352.00;;;20.80
9985;BMP180;16737;50.932;6.780;2022-09-04T05:13:41;100359.00;;;20.80
9985;BMP180;16737;50.932;6.780;2022-09-04T05:16:19;100357.00;;;20.70
9985;BMP180;16737;50.932;6.780;2022-09-04T05:18:56;100359.00;;;20.70
9985;BMP180;16737;50.932;6.780;2022-09-04T05:21:32;100369.00;;;20.70
9985;BMP180;16737;50.932;6.780;2022-09-04T05:24:04;100366.00;;;20.70
9985;BMP180;16737;50.932;6.780;2022-09-04T05:26:42;100378.00;;;20.70
9985;BMP180;16737;50.932;6.780;2022-09-04T05:29:20;100373.00;;;20.70
9985;BMP180;16737;50.932;6.780;2022-09-04T05:31:53;100380.00;;;20.70
9985;BMP180;16737;50.932;6.780;2022-09-04T05:34:30;100382.00;;;20.70
9985;BMP180;16737;50.932;6.780;2022-09-04T05:37:07;100393.00;;;20.70
9985;BMP180;16737;50.932;6.780;2022-09-04T05:39:45;100389.00;;;20.70
9985;BMP180;16737;50.932;6.780;2022-09-04T05:42:48;100393.00;;;20.70
9985;BMP180;16737;50.932;6.780;2022-09-04T05:45:23;100393.00;;;20.70
9985;BMP180;16737;50.932;6.780;2022-09-04T05:48:00;100402.00;;;20.70
9985;BMP180;16737;50.932;6.780;2022-09-04T05:50:48;100404.00;;;20.70
9985;BMP180;16737;50.932;6.780;2022-09-04T05:53:38;100410.00;;;20.80
9985;BMP180;16737;50.932;6.780;2022-09-04T05:56:20;100410.00;;;20.80
9985;BMP180;16737;50.932;6.780;2022-09-04T05:59:08;100414.00;;;20.80
9985;BMP180;16737;50.932;6.780;2022-09-04T06:01:57;100423.00;;;20.80
9985;BMP180;16737;50.932;6.780;2022-09-04T06:04:57;100423.00;;;20.80
9985;BMP180;16737;50.932;6.780;2022-09-04T06:07:33;100419.00;;;20.90
9985;BMP180;16737;50.932;6.780;2022-09-04T06:10:08;100419.00;;;20.90
9985;BMP180;16737;50.932;6.780;2022-09-04T06:12:53;100424.00;;;20.90
9985;BMP180;16737;50.932;6.780;2022-09-04T06:15:38;100426.00;;;20.90
9985;BMP180;16737;50.932;6.780;2022-09-04T06:18:29;100432.00;;;21.00
9985;BMP180;16737;50.932;6.780;2022-09-04T06:21:41;100427.00;;;21.00
9985;BMP180;16737;50.932;6.780;2022-09-04T06:24:36;100434.00;;;21.10
9985;BMP180;16737;50.932;6.780;2022-09-04T06:27:30;100436.00;;;21.10
9985;BMP180;16737;50.932;6.780;2022-09-04T06:30:10;100393.00;;;21.10
9985;BMP180;16737;50.932;6.780;2022-09-04T06:32:57;100441.00;;;21.20
9985;BMP180;16737;50.932;6.780;2022-09-04T06:35:39;100440.00;;;21.30
9985;BMP180;16737;50.932;6.780;2022-09-04T06:38:31;100456.00;;;21.40
9985;BMP180;16737;50.932;6.780;2022-09-04T06:41:15;100441.00;;;21.40
9985;BMP180;16737;50.932;6.780;2022-09-04T06:43:51;100454.00;;;21.50
9985;BMP180;16737;50.932;6.780;2022-09-04T06:46:26;100457.00;;;21.60
9985;BMP180;16737;50.932;6.780;2022-09-04T06:49:07;100466.00;;;21.70
9985;BMP180;16737;50.932;6.780;2022-09-04T06:51:54;100464.00;;;21.80
9985;BMP180;16737;50.932;6.780;2022-09-04T06:54:38;100471.00;;;21.90
9985;BMP180;16737;50.932;6.780;2022-09-04T06:57:26;100467.00;;;22.00
9985;BMP180;16737;50.932;6.780;2022-09-04T07:00:06;100470.00;;;22.10
9985;BMP180;16737;50.932;6.780;2022-09-04T07:05:34;100476.00;;;22.30
9985;BMP180;16737;50.932;6.780;2022-09-04T07:08:13;100474.00;;;22.40
9985;BMP180;16737;50.932;6.780;2022-09-04T07:10:49;100486.00;;;22.50
9985;BMP180;16737;50.932;6.780;2022-09-04T07:13:53;100475.00;;;22.60
9985;BMP180;16737;50.932;6.780;2022-09-04T07:16:31;100472.00;;;22.70
9985;BMP180;16737;50.932;6.780;2022-09-04T07:19:23;100481.00;;;22.80
9985;BMP180;16737;50.932;6.780;2022-09-04T07:22:07;100484.00;;;22.90
9985;BMP180;16737;50.932;6.780;2022-09-04T07:24:59;100492.00;;;23.00
9985;BMP180;16737;50.932;6.780;2022-09-04T07:27:41;100485.00;;;23.10
9985;BMP180;16737;50.932;6.780;2022-09-04T07:30:13;100498.00;;;23.30
9985;BMP180;16737;50.932;6.780;2022-09-04T07:32:48;100494.00;;;23.40
9985;BMP180;16737;50.932;6.780;2022-09-04T07:35:22;100496.00;;;23.50
9985;BMP180;16737;50.932;6.780;2022-09-04T07:37:55;100500.00;;;23.60
9985;BMP180;16737;50.932;6.780;2022-09-04T07:40:28;100509.00;;;23.70
9985;BMP180;16737;50.932;6.780;2022-09-04T07:43:02;100503.00;;;23.80
9985;BMP180;16737;50.932;6.780;2022-09-04T07:45:35;100511.00;;;24.00
9985;BMP180;16737;50.932;6.780;2022-09-04T07:48:10;100506.00;;;24.10
9985;BMP180;16737;50.932;6.780;2022-09-04T07:50:55;100514.00;;;24.20
9985;BMP180;16737;50.932;6.780;2022-09-04T07:53:39;100510.00;;;24.40
9985;BMP180;16737;50.932;6.780;2022-09-04T07:56:16;100506.00;;;24.50
9985;BMP180;16737;50.932;6.780;2022-09-04T07:58:55;100512.00;;;24.70
9985;BMP180;16737;50.932;6.780;2022-09-04T08:01:41;100522.00;;;24.80
9985;BMP180;16737;50.932;6.780;2022-09-04T08:07:16;100521.00;;;25.10
9985;BMP180;16737;50.932;6.780;2022-09-04T08:10:01;100523.00;;;25.20
9985;BMP180;16737;50.932;6.780;2022-09-04T08:12:49;100529.00;;;25.30
9985;BMP180;16737;50.932;6.780;2022-09-04T08:15:28;100528.00;;;25.50
9985;BMP180;16737;50.932;6.780;2022-09-04T08:18:07;100536.00;;;25.60
9985;BMP180;16737;50.932;6.780;2022-09-04T08:20:44;100528.00;;;25.70
9985;BMP180;16737;50.932;6.780;2022-09-04T08:23:39;100540.00;;;25.80
9985;BMP180;16737;50.932;6.780;2022-09-04T08:26:15;100541.00;;;26.00
9985;BMP180;16737;50.932;6.780;2022-09-04T08:29:06;100548.00;;;26.10
9985;BMP180;16737;50.932;6.780;2022-09-04T08:31:42;100543.00;;;26.20
9985;BMP180;16737;50.932;6.780;2022-09-04T08:34:38;100547.00;;;26.30
9985;BMP180;16737;50.932;6.780;2022-09-04T08:37:18;100554.00;;;26.50
9985;BMP180;16737;50.932;6.780;2022-09-04T08:39:58;100520.00;;;26.60
9985;BMP180;16737;50.932;6.780;2022-09-04T08:42:59;100555.00;;;26.70
9985;BMP180;16737;50.932;6.780;2022-09-04T08:46:02;100555.00;;;26.90
9985;BMP180;16737;50.932;6.780;2022-09-04T08:49:00;100564.00;;;27.00
9985;BMP180;16737;50.932;6.780;2022-09-04T08:52:14;100561.00;;;27.20
9985;BMP180;16737;50.932;6.780;2022-09-04T08:58:22;100575.00;;;27.40
9985;BMP180;16737;50.932;6.780;2022-09-04T09:10:29;100565.00;;;28.00
9985;BMP180;16737;50.932;6.780;2022-09-04T09:13:31;100563.00;;;28.10
9985;BMP180;16737;50.932;6.780;2022-09-04T09:16:18;100571.00;;;28.00
9985;BMP180;16737;50.932;6.780;2022-09-04T09:22:07;100564.00;;;28.60
9985;BMP180;16737;50.932;6.780;2022-09-04T09:25:06;100562.00;;;28.70
9985;BMP180;16737;50.932;6.780;2022-09-04T09:42:47;100565.00;;;29.50
9985;BMP180;16737;50.932;6.780;2022-09-04T09:49:11;100563.00;;;29.70
9985;BMP180;16737;50.932;6.780;2022-09-04T09:52:16;100565.00;;;29.80
9985;BMP180;16737;50.932;6.780;2022-09-04T10:01:04;100564.00;;;29.90
9985;BMP180;16737;50.932;6.780;2022-09-04T10:04:09;100569.00;;;30.00
9985;BMP180;16737;50.932;6.780;2022-09-04T10:07:15;100566.00;;;30.20
9985;BMP180;16737;50.932;6.780;2022-09-04T10:10:16;100568.00;;;30.30
9985;BMP180;16737;50.932;6.780;2022-09-04T10:13:25;100570.00;;;30.30
9985;BMP180;16737;50.932;6.780;2022-09-04T10:16:41;100568.00;;;30.40
9985;BMP180;16737;50.932;6.780;2022-09-04T10:19:48;100570.00;;;30.50
9985;BMP180;16737;50.932;6.780;2022-09-04T10:22:55;100567.00;;;30.50
9985;BMP180;16737;50.932;6.780;2022-09-04T10:25:43;100567.00;;;30.50
9985;BMP180;16737;50.932;6.780;2022-09-04T10:29:01;100570.00;;;30.50
9985;BMP180;16737;50.932;6.780;2022-09-04T10:31:51;100572.00;;;30.50
9985;BMP180;16737;50.932;6.780;2022-09-04T10:35:00;100565.00;;;30.50
9985;BMP180;16737;50.932;6.780;2022-09-04T10:37:42;100574.00;;;30.60
9985;BMP180;16737;50.932;6.780;2022-09-04T10:40:25;100574.00;;;30.60
9985;BMP180;16737;50.932;6.780;2022-09-04T10:43:28;100572.00;;;30.50
9985;BMP180;16737;50.932;6.780;2022-09-04T10:46:03;100576.00;;;30.50
9985;BMP180;16737;50.932;6.780;2022-09-04T10:48:52;100568.00;;;30.50
9985;BMP180;16737;50.932;6.780;2022-09-04T10:57:41;100566.00;;;30.50
9985;BMP180;16737;50.932;6.780;2022-09-04T11:00:14;100578.00;;;30.60
9985;BMP180;16737;50.932;6.780;2022-09-04T11:03:09;100571.00;;;30.70
9985;BMP180;16737;50.932;6.780;2022-09-04T11:09:02;100573.00;;;30.70
9985;BMP180;16737;50.932;6.780;2022-09-04T11:11:50;100569.00;;;30.70
9985;BMP180;16737;50.932;6.780;2022-09-04T11:14:42;100560.00;;;30.70
9985;BMP180;16737;50.932;6.780;2022-09-04T11:24:18;100564.00;;;30.70
9985;BMP180;16737;50.932;6.780;2022-09-04T11:27:33;100573.00;;;30.70
9985;BMP180;16737;50.932;6.780;2022-09-04T11:30:10;100565.00;;;30.70
9985;BMP180;16737;50.932;6.780;2022-09-04T11:33:19;100575.00;;;30.60
9985;BMP180;16737;50.932;6.780;2022-09-04T11:36:36;100567.00;;;30.50
9985;BMP180;16737;50.932;6.780;2022-09-04T11:39:35;100578.00;;;30.50
9985;BMP180;16737;50.932;6.780;2022-09-04T11:42:33;100568.00;;;30.50
9985;BMP180;16737;50.932;6.780;2022-09-04T11:45:43;100571.00;;;30.50
9985;BMP180;16737;50.932;6.780;2022-09-04T11:48:31;100570.00;;;30.50
9985;BMP180;16737;50.932;6.780;2022-09-04T11:51:32;100570.00;;;30.40
9985;BMP180;16737;50.932;6.780;2022-09-04T11:57:28;100580.00;;;30.50
9985;BMP180;16737;50.932;6.780;2022-09-04T12:00:12;100583.00;;;30.50
9985;BMP180;16737;50.932;6.780;2022-09-04T12:06:03;100575.00;;;30.70
9985;BMP180;16737;50.932;6.780;2022-09-04T12:08:53;100575.00;;;30.70
9985;BMP180;16737;50.932;6.780;2022-09-04T12:11:48;100580.00;;;30.70
9985;BMP180;16737;50.932;6.780;2022-09-04T12:14:31;100576.00;;;30.80
9985;BMP180;16737;50.932;6.780;2022-09-04T12:20:29;100578.00;;;30.90
9985;BMP180;16737;50.932;6.780;2022-09-04T12:23:31;100577.00;;;30.90
9985;BMP180;16737;50.932;6.780;2022-09-04T12:35:25;100578.00;;;31.10
9985;BMP180;16737;50.932;6.780;2022-09-04T12:38:18;100577.00;;;31.20
9985;BMP180;16737;50.932;6.780;2022-09-04T12:40:56;100570.00;;;31.30
9985;BMP180;16737;50.932;6.780;2022-09-04T12:43:43;100576.00;;;31.30
9985;BMP180;16737;50.932;6.780;2022-09-04T12:46:27;100570.00;;;31.40
9985;BMP180;16737;50.932;6.780;2022-09-04T12:49:15;100567.00;;;31.40
9985;BMP180;16737;50.932;6.780;2022-09-04T12:51:55;100574.00;;;31.40
9985;BMP180;16737;50.932;6.780;2022-09-04T12:54:31;100573.00;;;31.50
9985;BMP180;16737;50.932;6.780;2022-09-04T12:57:11;100575.00;;;31.50
9985;BMP180;16737;50.932;6.780;2022-09-04T13:00:01;100577.00;;;31.50
9985;BMP180;16737;50.932;6.780;2022-09-04T13:02:38;100578.00;;;31.60
9985;BMP180;16737;50.932;6.780;2022-09-04T13:05:27;100574.00;;;31.60
9985;BMP180;16737;50.932;6.780;2022-09-04T13:08:02;100576.00;;;31.70
9985;BMP180;16737;50.932;6.780;2022-09-04T13:10:37;100575.00;;;31.80
9985;BMP180;16737;50.932;6.780;2022-09-04T13:13:19;100576.00;;;31.80
9985;BMP180;16737;50.932;6.780;2022-09-04T13:15:57;100576.00;;;31.80
9985;BMP180;16737;50.932;6.780;2022-09-04T13:18:39;100578.00;;;31.90
9985;BMP180;16737;50.932;6.780;2022-09-04T13:21:19;100580.00;;;31.90
9985;BMP180;16737;50.932;6.780;2022-09-04T13:24:04;100580.00;;;31.90
9985;BMP180;16737;50.932;6.780;2022-09-04T13:26:49;100581.00;;;32.00
9985;BMP180;16737;50.932;6.780;2022-09-04T13:29:29;100580.00;;;32.10
9985;BMP180;16737;50.932;6.780;2022-09-04T13:32:18;100587.00;;;32.10
9985;BMP180;16737;50.932;6.780;2022-09-04T13:34:59;100580.00;;;32.10
9985;BMP180;16737;50.932;6.780;2022-09-04T13:37:41;100592.00;;;32.10
9985;BMP180;16737;50.932;6.780;2022-09-04T13:40:29;100590.00;;;32.20
9985;BMP180;16737;50.932;6.780;2022-09-04T13:43:26;100589.00;;;32.20
9985;BMP180;16737;50.932;6.780;2022-09-04T13:45:59;100597.00;;;32.30
9985;BMP180;16737;50.932;6.780;2022-09-04T13:48:34;100599.00;;;32.30
9985;BMP180;16737;50.932;6.780;2022-09-04T13:51:09;100601.00;;;32.40
9985;BMP180;16737;50.932;6.780;2022-09-04T13:53:53;100594.00;;;32.40
9985;BMP180;16737;50.932;6.780;2022-09-04T13:56:29;100595.00;;;32.50
9985;BMP180;16737;50.932;6.780;2022-09-04T13:59:02;100596.00;;;32.60
9985;BMP180;16737;50.932;6.780;2022-09-04T14:01:36;100591.00;;;32.60
9985;BMP180;16737;50.932;6.780;2022-09-04T14:04:14;100600.00;;;32.70
9985;BMP180;16737;50.932;6.780;2022-09-04T14:06:43;100597.00;;;32.80
9985;BMP180;16737;50.932;6.780;2022-09-04T14:09:11;100600.00;;;32.80
9985;BMP180;16737;50.932;6.780;2022-09-04T14:12:10;100597.00;;;32.80
9985;BMP180;16737;50.932;6.780;2022-09-04T14:15:02;100600.00;;;32.80
9985;BMP180;16737;50.932;6.780;2022-09-04T14:17:40;100602.00;;;32.90
9985;BMP180;16737;50.932;6.780;2022-09-04T14:20:15;100598.00;;;33.00
9985;BMP180;16737;50.932;6.780;2022-09-04T14:22:50;100599.00;;;33.00
9985;BMP180;16737;50.932;6.780;2022-09-04T14:25:25;100598.00;;;33.10
9985;BMP180;16737;50.932;6.780;2022-09-04T14:27:59;100588.00;;;33.10
9985;BMP180;16737;50.932;6.780;2022-09-04T14:30:32;100578.00;;;33.20
9985;BMP180;16737;50.932;6.780;2022-09-04T14:33:12;100593.00;;;33.20
9985;BMP180;16737;50.932;6.780;2022-09-04T14:35:47;100592.00;;;33.20
9985;BMP180;16737;50.932;6.780;2022-09-04T14:38:48;100594.00;;;33.20
9985;BMP180;16737;50.932;6.780;2022-09-04T14:41:30;100592.00;;;33.20
9985;BMP180;16737;50.932;6.780;2022-09-04T14:44:10;100593.00;;;33.20
9985;BMP180;16737;50.932;6.780;2022-09-04T14:46:46;100591.00;;;33.30
9985;BMP180;16737;50.932;6.780;2022-09-04T14:49:22;100590.00;;;33.30
9985;BMP180;16737;50.932;6.780;2022-09-04T14:51:59;100587.00;;;33.30
9985;BMP180;16737;50.932;6.780;2022-09-04T14:54:30;100582.00;;;33.30
9985;BMP180;16737;50.932;6.780;2022-09-04T14:57:09;100582.00;;;33.40
9985;BMP180;16737;50.932;6.780;2022-09-04T14:59:42;100575.00;;;33.40
9985;BMP180;16737;50.932;6.780;2022-09-04T15:02:21;100586.00;;;33.40
9985;BMP180;16737;50.932;6.780;2022-09-04T15:05:00;100582.00;;;33.40
9985;BMP180;16737;50.932;6.780;2022-09-04T15:07:51;100586.00;;;33.30
9985;BMP180;16737;50.932;6.780;2022-09-04T15:10:23;100577.00;;;33.30
9985;BMP180;16737;50.932;6.780;2022-09-04T15:13:02;100582.00;;;33.30
9985;BMP180;16737;50.932;6.780;2022-09-04T15:15:37;100590.00;;;33.30
9985;BMP180;16737;50.932;6.780;2022-09-04T15:18:10;100579.00;;;33.30
9985;BMP180;16737;50.932;6.780;2022-09-04T15:20:49;100576.00;;;33.30
9985;BMP180;16737;50.932;6.780;2022-09-04T15:23:23;100576.00;;;33.30
9985;BMP180;16737;50.932;6.780;2022-09-04T15:26:00;100575.00;;;33.20
9985;BMP180;16737;50.932;6.780;2022-09-04T15:28:38;100573.00;;;33.20
9985;BMP180;16737;50.932;6.780;2022-09-04T15:31:12;100572.00;;;33.20
9985;BMP180;16737;50.932;6.780;2022-09-04T15:33:42;100572.00;;;33.20
9985;BMP180;16737;50.932;6.780;2022-09-04T15:36:15;100574.00;;;33.20
9985;BMP180;16737;50.932;6.780;2022-09-04T15:38:47;100582.00;;;33.20
9985;BMP180;16737;50.932;6.780;2022-09-04T15:41:21;100573.00;;;33.20
9985;BMP180;16737;50.932;6.780;2022-09-04T15:43:51;100576.00;;;33.20
9985;BMP180;16737;50.932;6.780;2022-09-04T15:46:35;100574.00;;;33.10
9985;BMP180;16737;50.932;6.780;2022-09-04T15:49:18;100577.00;;;33.10
9985;BMP180;16737;50.932;6.780;2022-09-04T15:51:50;100572.00;;;33.10
9985;BMP180;16737;50.932;6.780;2022-09-04T15:54:27;100574.00;;;33.10
9985;BMP180;16737;50.932;6.780;2022-09-04T15:57:03;100580.00;;;33.10
9985;BMP180;16737;50.932;6.780;2022-09-04T15:59:40;100578.00;;;33.10
9985;BMP180;16737;50.932;6.780;2022-09-04T16:02:23;100580.00;;;33.10
9985;BMP180;16737;50.932;6.780;2022-09-04T16:04:55;100580.00;;;33.10
9985;BMP180;16737;50.932;6.780;2022-09-04T16:07:38;100583.00;;;33.10
9985;BMP180;16737;50.932;6.780;2022-09-04T16:10:18;100572.00;;;33.10
9985;BMP180;16737;50.932;6.780;2022-09-04T16:12:55;100581.00;;;33.10
9985;BMP180;16737;50.932;6.780;2022-09-04T16:15:26;100593.00;;;33.10
9985;BMP180;16737;50.932;6.780;2022-09-04T16:18:00;100583.00;;;33.10
9985;BMP180;16737;50.932;6.780;2022-09-04T16:20:32;100582.00;;;33.10
9985;BMP180;16737;50.932;6.780;2022-09-04T16:23:04;100581.00;;;33.10
9985;BMP180;16737;50.932;6.780;2022-09-04T16:25:36;100583.00;;;33.10
9985;BMP180;16737;50.932;6.780;2022-09-04T16:28:07;100581.00;;;33.00
9985;BMP180;16737;50.932;6.780;2022-09-04T16:30:38;100589.00;;;33.00
9985;BMP180;16737;50.932;6.780;2022-09-04T16:33:18;100579.00;;;32.90
9985;BMP180;16737;50.932;6.780;2022-09-04T16:35:51;100574.00;;;32.90
9985;BMP180;16737;50.932;6.780;2022-09-04T16:38:21;100588.00;;;32.90
9985;BMP180;16737;50.932;6.780;2022-09-04T16:40:55;100544.00;;;32.80
9985;BMP180;16737;50.932;6.780;2022-09-04T16:43:27;100574.00;;;32.80
9985;BMP180;16737;50.932;6.780;2022-09-04T16:46:06;100569.00;;;32.70
9985;BMP180;16737;50.932;6.780;2022-09-04T16:48:43;100575.00;;;32.70
9985;BMP180;16737;50.932;6.780;2022-09-04T16:51:15;100569.00;;;32.60
9985;BMP180;16737;50.932;6.780;2022-09-04T16:53:50;100572.00;;;32.60
9985;BMP180;16737;50.932;6.780;2022-09-04T16:56:22;100572.00;;;32.50
9985;BMP180;16737;50.932;6.780;2022-09-04T16:59:07;100567.00;;;32.50
9985;BMP180;16737;50.932;6.780;2022-09-04T17:01:41;100569.00;;;32.40